createdAt,value
2022-09-20T00:01:09.531Z,8.96
2022-09-20T00:03:37.413Z,9.00
2022-09-20T00:06:05.757Z,9.21
2022-09-20T00:08:32.730Z,9.19
2022-09-20T00:11:08.675Z,9.21
2022-09-20T00:13:36.750Z,9.14
2022-09-20T00:16:08.264Z,9.28
2022-09-20T00:18:35.360Z,8.81
2022-09-20T00:21:01.986Z,8.69
2022-09-20T00:23:30.166Z,8.76
2022-09-20T00:26:02.616Z,8.63
2022-09-20T00:28:29.898Z,8.66
2022-09-20T00:30:57.015Z,8.83
2022-09-20T00:33:25.231Z,8.88
2022-09-20T00:35:51.734Z,8.97
2022-09-20T00:38:19.975Z,8.96
2022-09-20T00:40:46.520Z,8.94
2022-09-20T00:43:16.020Z,8.80
2022-09-20T00:45:44.673Z,8.81
2022-09-20T00:48:11.160Z,8.50
2022-09-20T00:50:43.890Z,8.50
2022-09-20T00:53:34.513Z,8.61
2022-09-20T00:56:08.013Z,8.60
2022-09-20T00:58:38.598Z,8.56
2022-09-20T01:01:06.069Z,8.60
2022-09-20T01:03:34.318Z,8.54
2022-09-20T01:06:04.584Z,8.44
2022-09-20T01:08:32.240Z,8.29
2022-09-20T01:10:58.766Z,8.25
2022-09-20T01:13:25.331Z,8.25
2022-09-20T01:15:52.340Z,8.35
2022-09-20T01:18:20.207Z,8.60
2022-09-20T01:20:48.216Z,8.70
2022-09-20T01:23:44.372Z,8.53
2022-09-20T01:26:29.194Z,8.51
2022-09-20T01:29:08.420Z,8.39
2022-09-20T01:31:36.419Z,8.40
2022-09-20T01:34:06.011Z,8.32
2022-09-20T01:36:42.965Z,8.36
2022-09-20T01:39:15.320Z,8.19
2022-09-20T01:41:47.785Z,7.83
2022-09-20T01:44:39.243Z,7.80
2022-09-20T01:47:40.300Z,7.97
2022-09-20T01:50:18.969Z,8.01
2022-09-20T01:52:57.914Z,8.02
2022-09-20T01:55:42.776Z,8.30
2022-09-20T01:58:33.941Z,8.27
2022-09-20T02:01:39.707Z,8.24
2022-09-20T02:04:27.996Z,8.34
2022-09-20T02:07:19.613Z,8.12
2022-09-20T02:10:05.027Z,7.71
2022-09-20T02:12:46.500Z,7.77
2022-09-20T02:15:15.894Z,7.75
2022-09-20T02:18:20.254Z,7.69
2022-09-20T02:20:54.240Z,7.86
2022-09-20T02:23:45.596Z,7.95
2022-09-20T02:26:21.167Z,7.87
2022-09-20T02:28:55.004Z,7.82
2022-09-20T02:31:30.448Z,8.03
2022-09-20T02:34:08.675Z,7.92
2022-09-20T02:37:05.687Z,7.83
2022-09-20T02:40:06.786Z,7.84
2022-09-20T02:42:38.491Z,7.83
2022-09-20T02:45:11.730Z,7.89
2022-09-20T02:47:39.954Z,8.00
2022-09-20T02:51:00.790Z,7.97
2022-09-20T02:53:32.969Z,7.99
2022-09-20T02:56:39.005Z,8.06
2022-09-20T02:59:41.196Z,8.09
2022-09-20T03:02:44.173Z,7.90
2022-09-20T03:05:27.691Z,8.07
2022-09-20T03:08:22.076Z,8.11
2022-09-20T03:11:04.142Z,8.19
2022-09-20T03:14:01.192Z,8.23
2022-09-20T03:16:32.034Z,8.35
2022-09-20T03:19:22.165Z,8.47
2022-09-20T03:21:52.498Z,8.42
2022-09-20T03:24:49.585Z,8.14
2022-09-20T03:27:47.612Z,8.13
2022-09-20T03:30:31.441Z,8.29
2022-09-20T03:33:07.328Z,8.01
2022-09-20T03:35:42.857Z,8.03
2022-09-20T03:38:28.097Z,8.26
2022-09-20T03:40:58.764Z,8.27
2022-09-20T03:43:39.151Z,8.33
2022-09-20T03:46:08.646Z,8.41
2022-09-20T03:49:00.549Z,8.50
2022-09-20T03:51:34.264Z,8.49
2022-09-20T03:54:23.116Z,8.57
2022-09-20T03:57:04.433Z,8.56
2022-09-20T03:59:40.308Z,8.60
2022-09-20T04:02:37.889Z,8.58
2022-09-20T04:05:12.443Z,8.61
2022-09-20T04:07:56.367Z,8.56
2022-09-20T04:11:00.722Z,8.60
2022-09-20T04:14:01.553Z,8.50
2022-09-20T04:16:52.595Z,8.52
2022-09-20T04:19:29.745Z,8.62
2022-09-20T04:22:01.096Z,8.77
2022-09-20T04:24:39.990Z,8.81
2022-09-20T04:27:18.554Z,8.76
2022-09-20T04:29:57.583Z,8.61
2022-09-20T04:32:48.847Z,8.74
2022-09-20T04:35:40.050Z,8.85
2022-09-20T04:38:13.105Z,8.86
2022-09-20T04:40:48.638Z,8.78
2022-09-20T04:43:56.454Z,8.78
2022-09-20T04:46:31.960Z,8.86
2022-09-20T04:49:33.860Z,8.81
2022-09-20T04:52:20.996Z,8.65
2022-09-20T04:55:06.372Z,8.75
2022-09-20T04:57:54.592Z,8.82
2022-09-20T05:00:22.800Z,8.64
2022-09-20T05:02:55.306Z,8.61
2022-09-20T05:05:27.825Z,8.86
2022-09-20T05:08:03.283Z,8.95
2022-09-20T05:10:35.883Z,8.72
2022-09-20T05:13:13.486Z,8.80
2022-09-20T05:15:46.284Z,8.96
2022-09-20T05:18:32.997Z,9.09
2022-09-20T05:21:11.439Z,9.01
2022-09-20T05:24:03.058Z,9.02
2022-09-20T05:26:34.687Z,8.94
2022-09-20T05:29:17.818Z,9.05
2022-09-20T05:31:53.413Z,9.03
2022-09-20T05:34:35.139Z,8.83
2022-09-20T05:37:15.320Z,8.96
2022-09-20T05:39:46.490Z,8.87
2022-09-20T05:42:22.865Z,8.79
2022-09-20T05:45:18.160Z,8.96
2022-09-20T05:48:12.559Z,9.10
2022-09-20T05:50:59.516Z,9.00
2022-09-20T05:54:05.896Z,9.18
2022-09-20T05:57:10.250Z,9.26
2022-09-20T06:00:10.577Z,9.34
2022-09-20T06:02:49.198Z,9.40
2022-09-20T06:05:18.331Z,9.28
2022-09-20T06:07:55.837Z,9.38
2022-09-20T06:10:39.764Z,9.21
2022-09-20T06:13:12.135Z,9.21
2022-09-20T06:15:45.849Z,9.13
2022-09-20T06:18:23.147Z,9.30
2022-09-20T06:21:11.085Z,9.43
2022-09-20T06:23:37.607Z,9.50
2022-09-20T06:26:09.492Z,9.54
2022-09-20T06:28:41.484Z,9.50
2022-09-20T06:31:09.127Z,9.45
2022-09-20T06:34:02.328Z,9.45
2022-09-20T06:36:55.554Z,9.56
2022-09-20T06:40:02.685Z,9.54
2022-09-20T06:42:29.623Z,9.67
2022-09-20T06:44:56.637Z,9.75
2022-09-20T06:47:23.361Z,9.81
2022-09-20T06:49:50.434Z,9.73
